sensor_id;sensor_type;location;lat;lon;timestamp;P1;durP1;ratioP1;P2;durP2;ratioP2
60054;SDS011;45930;53.514;55.904;2022-07-29T00:00:47;47.42;;;42.33;;
60054;SDS011;45930;53.514;55.904;2022-07-29T00:01:48;47.85;;;41.08;;
60054;SDS011;45930;53.514;55.904;2022-07-29T00:02:52;45.75;;;40.63;;
60054;SDS011;45930;53.514;55.904;2022-07-29T00:03:53;45.88;;;40.75;;
60054;SDS011;45930;53.514;55.904;2022-07-29T00:04:54;47.55;;;42.35;;
60054;SDS011;45930;53.514;55.904;2022-07-29T00:05:54;47.97;;;41.38;;
60054;SDS011;45930;53.514;55.904;2022-07-29T00:06:55;47.72;;;42.58;;
60054;SDS011;45930;53.514;55.904;2022-07-29T00:07:56;47.33;;;39.45;;
60054;SDS011;45930;53.514;55.904;2022-07-29T00:08:57;47.85;;;40.97;;
60054;SDS011;45930;53.514;55.904;2022-07-29T00:09:58;48.05;;;42.00;;
60054;SDS011;45930;53.514;55.904;2022-07-29T00:10:58;47.70;;;42.08;;
60054;SDS011;45930;53.514;55.904;2022-07-29T00:12:00;47.85;;;41.80;;
60054;SDS011;45930;53.514;55.904;2022-07-29T00:13:01;45.83;;;40.55;;
60054;SDS011;45930;53.514;55.904;2022-07-29T00:14:02;45.72;;;40.70;;
60054;SDS011;45930;53.514;55.904;2022-07-29T00:15:03;45.85;;;40.95;;
60054;SDS011;45930;53.514;55.904;2022-07-29T00:16:05;47.60;;;42.58;;
60054;SDS011;45930;53.514;55.904;2022-07-29T00:17:05;49.90;;;44.53;;
60054;SDS011;45930;53.514;55.904;2022-07-29T00:18:06;50.30;;;43.45;;
60054;SDS011;45930;53.514;55.904;2022-07-29T00:19:07;49.58;;;44.47;;
60054;SDS011;45930;53.514;55.904;2022-07-29T00:20:08;53.08;;;43.03;;
60054;SDS011;45930;53.514;55.904;2022-07-29T00:21:09;48.25;;;42.67;;
60054;SDS011;45930;53.514;55.904;2022-07-29T00:22:10;49.85;;;43.47;;
60054;SDS011;45930;53.514;55.904;2022-07-29T00:23:11;50.05;;;41.45;;
60054;SDS011;45930;53.514;55.904;2022-07-29T00:24:12;49.83;;;41.78;;
60054;SDS011;45930;53.514;55.904;2022-07-29T00:25:13;52.80;;;43.08;;
60054;SDS011;45930;53.514;55.904;2022-07-29T00:26:13;48.72;;;41.47;;
60054;SDS011;45930;53.514;55.904;2022-07-29T00:27:14;48.45;;;41.10;;
60054;SDS011;45930;53.514;55.904;2022-07-29T00:28:16;53.80;;;42.28;;
60054;SDS011;45930;53.514;55.904;2022-07-29T00:29:17;48.75;;;40.47;;
60054;SDS011;45930;53.514;55.904;2022-07-29T00:30:18;45.53;;;40.33;;
60054;SDS011;45930;53.514;55.904;2022-07-29T00:31:19;49.65;;;42.63;;
60054;SDS011;45930;53.514;55.904;2022-07-29T00:32:20;53.58;;;43.05;;
60054;SDS011;45930;53.514;55.904;2022-07-29T00:33:21;46.67;;;40.58;;
60054;SDS011;45930;53.514;55.904;2022-07-29T00:34:23;49.13;;;41.90;;
60054;SDS011;45930;53.514;55.904;2022-07-29T00:35:43;52.38;;;42.63;;
60054;SDS011;45930;53.514;55.904;2022-07-29T00:36:43;46.70;;;41.53;;
60054;SDS011;45930;53.514;55.904;2022-07-29T00:37:44;46.05;;;40.03;;
60054;SDS011;45930;53.514;55.904;2022-07-29T00:38:45;49.47;;;40.72;;
60054;SDS011;45930;53.514;55.904;2022-07-29T00:39:46;47.83;;;40.25;;
60054;SDS011;45930;53.514;55.904;2022-07-29T00:40:47;49.15;;;41.05;;
60054;SDS011;45930;53.514;55.904;2022-07-29T00:41:48;50.72;;;40.97;;
60054;SDS011;45930;53.514;55.904;2022-07-29T00:42:50;46.15;;;39.55;;
60054;SDS011;45930;53.514;55.904;2022-07-29T00:43:52;46.08;;;39.80;;
60054;SDS011;45930;53.514;55.904;2022-07-29T00:44:52;49.03;;;40.70;;
60054;SDS011;45930;53.514;55.904;2022-07-29T00:45:53;46.65;;;40.63;;
60054;SDS011;45930;53.514;55.904;2022-07-29T00:46:54;46.33;;;39.80;;
60054;SDS011;45930;53.514;55.904;2022-07-29T00:47:55;48.15;;;40.13;;
60054;SDS011;45930;53.514;55.904;2022-07-29T00:48:56;51.35;;;42.35;;
60054;SDS011;45930;53.514;55.904;2022-07-29T00:49:57;45.40;;;39.30;;
60054;SDS011;45930;53.514;55.904;2022-07-29T00:50:58;48.72;;;41.75;;
60054;SDS011;45930;53.514;55.904;2022-07-29T00:52:05;44.50;;;37.97;;
60054;SDS011;45930;53.514;55.904;2022-07-29T00:53:07;47.72;;;40.95;;
60054;SDS011;45930;53.514;55.904;2022-07-29T00:54:08;48.17;;;39.33;;
60054;SDS011;45930;53.514;55.904;2022-07-29T00:55:10;45.78;;;40.78;;
60054;SDS011;45930;53.514;55.904;2022-07-29T00:56:13;45.47;;;38.97;;
60054;SDS011;45930;53.514;55.904;2022-07-29T00:57:13;44.47;;;39.63;;
60054;SDS011;45930;53.514;55.904;2022-07-29T00:58:14;46.90;;;39.88;;
60054;SDS011;45930;53.514;55.904;2022-07-29T00:59:15;49.10;;;40.65;;
60054;SDS011;45930;53.514;55.904;2022-07-29T01:00:18;54.15;;;41.85;;
60054;SDS011;45930;53.514;55.904;2022-07-29T01:01:21;47.30;;;41.55;;
60054;SDS011;45930;53.514;55.904;2022-07-29T01:02:22;47.60;;;41.03;;
60054;SDS011;45930;53.514;55.904;2022-07-29T01:03:23;48.20;;;43.15;;
60054;SDS011;45930;53.514;55.904;2022-07-29T01:04:24;45.75;;;40.80;;
60054;SDS011;45930;53.514;55.904;2022-07-29T01:05:26;46.10;;;39.63;;
60054;SDS011;45930;53.514;55.904;2022-07-29T01:06:29;44.85;;;39.67;;
60054;SDS011;45930;53.514;55.904;2022-07-29T01:07:30;46.55;;;39.85;;
60054;SDS011;45930;53.514;55.904;2022-07-29T01:08:33;47.95;;;40.50;;
60054;SDS011;45930;53.514;55.904;2022-07-29T01:09:34;46.50;;;39.58;;
60054;SDS011;45930;53.514;55.904;2022-07-29T01:10:37;45.92;;;38.70;;
60054;SDS011;45930;53.514;55.904;2022-07-29T01:11:39;44.15;;;38.42;;
60054;SDS011;45930;53.514;55.904;2022-07-29T01:12:42;51.53;;;39.10;;
60054;SDS011;45930;53.514;55.904;2022-07-29T01:13:44;46.92;;;39.17;;
60054;SDS011;45930;53.514;55.904;2022-07-29T01:14:47;43.83;;;37.28;;
60054;SDS011;45930;53.514;55.904;2022-07-29T01:15:51;46.88;;;38.90;;
60054;SDS011;45930;53.514;55.904;2022-07-29T01:16:59;46.67;;;39.10;;
60054;SDS011;45930;53.514;55.904;2022-07-29T01:18:16;48.65;;;39.97;;
60054;SDS011;45930;53.514;55.904;2022-07-29T01:22:25;46.22;;;40.60;;
60054;SDS011;45930;53.514;55.904;2022-07-29T01:25:58;48.83;;;41.30;;
60054;SDS011;45930;53.514;55.904;2022-07-29T01:32:37;46.25;;;40.95;;
60054;SDS011;45930;53.514;55.904;2022-07-29T01:33:41;47.00;;;40.05;;
60054;SDS011;45930;53.514;55.904;2022-07-29T01:34:56;46.97;;;41.67;;
60054;SDS011;45930;53.514;55.904;2022-07-29T01:36:22;46.25;;;40.58;;
60054;SDS011;45930;53.514;55.904;2022-07-29T01:37:45;47.60;;;40.55;;
60054;SDS011;45930;53.514;55.904;2022-07-29T01:38:54;49.17;;;39.47;;
60054;SDS011;45930;53.514;55.904;2022-07-29T01:40:02;45.83;;;38.33;;
60054;SDS011;45930;53.514;55.904;2022-07-29T01:41:05;43.67;;;38.15;;
60054;SDS011;45930;53.514;55.904;2022-07-29T01:43:35;48.10;;;38.97;;
60054;SDS011;45930;53.514;55.904;2022-07-29T01:45:58;48.85;;;38.22;;
60054;SDS011;45930;53.514;55.904;2022-07-29T01:47:05;48.33;;;36.40;;
60054;SDS011;45930;53.514;55.904;2022-07-29T01:48:21;44.15;;;38.05;;
60054;SDS011;45930;53.514;55.904;2022-07-29T01:49:27;46.88;;;36.97;;
60054;SDS011;45930;53.514;55.904;2022-07-29T01:50:33;46.65;;;38.63;;
60054;SDS011;45930;53.514;55.904;2022-07-29T01:51:43;48.05;;;38.28;;
60054;SDS011;45930;53.514;55.904;2022-07-29T01:52:58;50.63;;;39.10;;
60054;SDS011;45930;53.514;55.904;2022-07-29T01:54:06;45.75;;;38.70;;
60054;SDS011;45930;53.514;55.904;2022-07-29T01:55:12;46.15;;;38.22;;
60054;SDS011;45930;53.514;55.904;2022-07-29T01:56:15;46.80;;;38.42;;
60054;SDS011;45930;53.514;55.904;2022-07-29T01:57:19;50.22;;;38.13;;
60054;SDS011;45930;53.514;55.904;2022-07-29T01:58:25;49.63;;;35.45;;
60054;SDS011;45930;53.514;55.904;2022-07-29T01:59:29;48.83;;;35.92;;
60054;SDS011;45930;53.514;55.904;2022-07-29T02:00:31;46.40;;;37.08;;
60054;SDS011;45930;53.514;55.904;2022-07-29T02:01:33;44.80;;;31.77;;
60054;SDS011;45930;53.514;55.904;2022-07-29T02:02:36;43.67;;;34.55;;
60054;SDS011;45930;53.514;55.904;2022-07-29T02:03:39;43.70;;;34.67;;
60054;SDS011;45930;53.514;55.904;2022-07-29T02:04:45;42.15;;;35.90;;
60054;SDS011;45930;53.514;55.904;2022-07-29T02:05:48;45.50;;;34.55;;
60054;SDS011;45930;53.514;55.904;2022-07-29T02:06:52;41.10;;;33.63;;
60054;SDS011;45930;53.514;55.904;2022-07-29T02:07:57;43.63;;;33.25;;
60054;SDS011;45930;53.514;55.904;2022-07-29T02:08:59;45.10;;;35.97;;
60054;SDS011;45930;53.514;55.904;2022-07-29T02:10:03;46.05;;;35.38;;
60054;SDS011;45930;53.514;55.904;2022-07-29T02:11:06;43.28;;;36.08;;
60054;SDS011;45930;53.514;55.904;2022-07-29T02:12:08;40.15;;;34.70;;
60054;SDS011;45930;53.514;55.904;2022-07-29T02:13:12;45.47;;;34.95;;
60054;SDS011;45930;53.514;55.904;2022-07-29T02:14:15;46.85;;;35.25;;
60054;SDS011;45930;53.514;55.904;2022-07-29T02:15:19;46.47;;;35.40;;
60054;SDS011;45930;53.514;55.904;2022-07-29T02:16:21;40.80;;;34.45;;
60054;SDS011;45930;53.514;55.904;2022-07-29T02:17:25;40.60;;;34.00;;
60054;SDS011;45930;53.514;55.904;2022-07-29T02:18:29;41.58;;;33.65;;
60054;SDS011;45930;53.514;55.904;2022-07-29T02:19:32;43.10;;;35.22;;
60054;SDS011;45930;53.514;55.904;2022-07-29T02:20:33;39.35;;;33.95;;
60054;SDS011;45930;53.514;55.904;2022-07-29T02:21:34;40.17;;;33.10;;
60054;SDS011;45930;53.514;55.904;2022-07-29T02:22:37;42.38;;;33.70;;
60054;SDS011;45930;53.514;55.904;2022-07-29T02:23:40;37.78;;;32.88;;
60054;SDS011;45930;53.514;55.904;2022-07-29T02:24:42;41.03;;;33.03;;
60054;SDS011;45930;53.514;55.904;2022-07-29T02:25:44;41.00;;;32.75;;
60054;SDS011;45930;53.514;55.904;2022-07-29T02:26:49;39.28;;;33.20;;
60054;SDS011;45930;53.514;55.904;2022-07-29T02:27:51;37.33;;;33.20;;
60054;SDS011;45930;53.514;55.904;2022-07-29T02:28:54;37.33;;;32.42;;
60054;SDS011;45930;53.514;55.904;2022-07-29T02:29:57;39.25;;;32.88;;
60054;SDS011;45930;53.514;55.904;2022-07-29T02:31:01;39.45;;;33.47;;
60054;SDS011;45930;53.514;55.904;2022-07-29T02:32:03;37.90;;;31.58;;
60054;SDS011;45930;53.514;55.904;2022-07-29T02:33:05;37.13;;;31.70;;
60054;SDS011;45930;53.514;55.904;2022-07-29T02:34:07;34.63;;;30.73;;
60054;SDS011;45930;53.514;55.904;2022-07-29T02:35:09;38.00;;;32.95;;
60054;SDS011;45930;53.514;55.904;2022-07-29T02:36:14;40.50;;;33.75;;
60054;SDS011;45930;53.514;55.904;2022-07-29T02:37:17;36.45;;;32.33;;
60054;SDS011;45930;53.514;55.904;2022-07-29T02:38:18;34.55;;;30.80;;
60054;SDS011;45930;53.514;55.904;2022-07-29T02:39:40;34.72;;;30.85;;
60054;SDS011;45930;53.514;55.904;2022-07-29T02:40:44;37.20;;;31.70;;
60054;SDS011;45930;53.514;55.904;2022-07-29T02:41:51;37.88;;;32.35;;
60054;SDS011;45930;53.514;55.904;2022-07-29T02:42:55;36.70;;;31.00;;
60054;SDS011;45930;53.514;55.904;2022-07-29T02:43:57;36.85;;;31.38;;
60054;SDS011;45930;53.514;55.904;2022-07-29T02:45:09;35.03;;;30.85;;
60054;SDS011;45930;53.514;55.904;2022-07-29T02:46:19;35.60;;;31.65;;
60054;SDS011;45930;53.514;55.904;2022-07-29T02:47:30;38.60;;;31.67;;
60054;SDS011;45930;53.514;55.904;2022-07-29T02:48:44;37.78;;;32.22;;
60054;SDS011;45930;53.514;55.904;2022-07-29T02:49:57;36.90;;;32.10;;
60054;SDS011;45930;53.514;55.904;2022-07-29T02:51:08;35.30;;;30.45;;
60054;SDS011;45930;53.514;55.904;2022-07-29T02:53:32;34.53;;;30.77;;
60054;SDS011;45930;53.514;55.904;2022-07-29T02:54:39;33.53;;;29.90;;
60054;SDS011;45930;53.514;55.904;2022-07-29T02:55:55;38.60;;;32.28;;
60054;SDS011;45930;53.514;55.904;2022-07-29T02:57:00;34.75;;;31.10;;
60054;SDS011;45930;53.514;55.904;2022-07-29T02:58:22;34.90;;;31.15;;
60054;SDS011;45930;53.514;55.904;2022-07-29T02:59:39;38.15;;;31.23;;
60054;SDS011;45930;53.514;55.904;2022-07-29T03:00:42;33.35;;;29.83;;
60054;SDS011;45930;53.514;55.904;2022-07-29T03:01:47;34.33;;;30.65;;
60054;SDS011;45930;53.514;55.904;2022-07-29T03:02:50;34.40;;;29.80;;
60054;SDS011;45930;53.514;55.904;2022-07-29T03:03:53;32.45;;;28.98;;
60054;SDS011;45930;53.514;55.904;2022-07-29T03:04:55;32.63;;;28.83;;
60054;SDS011;45930;53.514;55.904;2022-07-29T03:05:58;34.08;;;30.52;;
60054;SDS011;45930;53.514;55.904;2022-07-29T03:07:01;35.33;;;31.45;;
60054;SDS011;45930;53.514;55.904;2022-07-29T03:08:04;33.80;;;30.15;;
60054;SDS011;45930;53.514;55.904;2022-07-29T03:09:06;36.13;;;31.10;;
60054;SDS011;45930;53.514;55.904;2022-07-29T03:10:08;36.15;;;30.48;;
60054;SDS011;45930;53.514;55.904;2022-07-29T03:11:09;34.67;;;30.85;;
60054;SDS011;45930;53.514;55.904;2022-07-29T03:12:11;34.85;;;31.05;;
60054;SDS011;45930;53.514;55.904;2022-07-29T03:13:12;35.55;;;30.80;;
60054;SDS011;45930;53.514;55.904;2022-07-29T03:14:14;34.20;;;30.50;;
60054;SDS011;45930;53.514;55.904;2022-07-29T03:15:17;37.08;;;31.75;;
60054;SDS011;45930;53.514;55.904;2022-07-29T03:16:19;34.85;;;31.02;;
60054;SDS011;45930;53.514;55.904;2022-07-29T03:17:22;37.30;;;31.88;;
60054;SDS011;45930;53.514;55.904;2022-07-29T03:18:23;36.03;;;31.52;;
60054;SDS011;45930;53.514;55.904;2022-07-29T03:19:25;34.92;;;31.02;;
60054;SDS011;45930;53.514;55.904;2022-07-29T03:20:27;35.70;;;31.90;;
60054;SDS011;45930;53.514;55.904;2022-07-29T03:21:28;33.90;;;30.13;;
60054;SDS011;45930;53.514;55.904;2022-07-29T03:22:28;33.67;;;30.05;;
60054;SDS011;45930;53.514;55.904;2022-07-29T03:23:29;35.38;;;31.55;;
60054;SDS011;45930;53.514;55.904;2022-07-29T03:24:31;36.53;;;30.67;;
60054;SDS011;45930;53.514;55.904;2022-07-29T03:25:34;35.45;;;30.20;;
60054;SDS011;45930;53.514;55.904;2022-07-29T03:26:35;34.60;;;30.95;;
60054;SDS011;45930;53.514;55.904;2022-07-29T03:27:36;35.38;;;31.50;;
60054;SDS011;45930;53.514;55.904;2022-07-29T03:28:37;35.55;;;31.10;;
60054;SDS011;45930;53.514;55.904;2022-07-29T03:29:38;35.58;;;31.48;;
60054;SDS011;45930;53.514;55.904;2022-07-29T03:30:38;38.22;;;31.27;;
60054;SDS011;45930;53.514;55.904;2022-07-29T03:31:39;33.85;;;30.20;;
60054;SDS011;45930;53.514;55.904;2022-07-29T03:32:41;35.33;;;30.60;;
60054;SDS011;45930;53.514;55.904;2022-07-29T03:33:42;35.58;;;31.70;;
60054;SDS011;45930;53.514;55.904;2022-07-29T03:34:42;35.72;;;31.13;;
60054;SDS011;45930;53.514;55.904;2022-07-29T03:35:43;36.33;;;31.58;;
60054;SDS011;45930;53.514;55.904;2022-07-29T03:36:44;34.85;;;31.15;;
60054;SDS011;45930;53.514;55.904;2022-07-29T03:37:46;37.72;;;32.20;;
60054;SDS011;45930;53.514;55.904;2022-07-29T03:38:47;37.95;;;30.98;;
60054;SDS011;45930;53.514;55.904;2022-07-29T03:39:49;34.33;;;30.60;;
60054;SDS011;45930;53.514;55.904;2022-07-29T03:40:53;37.17;;;31.45;;
60054;SDS011;45930;53.514;55.904;2022-07-29T03:41:58;34.33;;;29.38;;
60054;SDS011;45930;53.514;55.904;2022-07-29T03:43:01;34.40;;;30.92;;
60054;SDS011;45930;53.514;55.904;2022-07-29T03:44:04;35.67;;;31.45;;
60054;SDS011;45930;53.514;55.904;2022-07-29T03:45:08;34.55;;;29.27;;
60054;SDS011;45930;53.514;55.904;2022-07-29T03:46:12;34.00;;;29.25;;
60054;SDS011;45930;53.514;55.904;2022-07-29T03:47:18;33.58;;;29.83;;
60054;SDS011;45930;53.514;55.904;2022-07-29T03:48:23;35.25;;;31.05;;
60054;SDS011;45930;53.514;55.904;2022-07-29T03:49:26;33.22;;;27.88;;
60054;SDS011;45930;53.514;55.904;2022-07-29T03:50:28;32.33;;;28.00;;
60054;SDS011;45930;53.514;55.904;2022-07-29T03:51:30;33.88;;;30.48;;
60054;SDS011;45930;53.514;55.904;2022-07-29T03:52:32;35.10;;;29.98;;
60054;SDS011;45930;53.514;55.904;2022-07-29T03:53:33;33.78;;;29.83;;
60054;SDS011;45930;53.514;55.904;2022-07-29T03:54:36;33.22;;;28.20;;
60054;SDS011;45930;53.514;55.904;2022-07-29T03:55:40;34.38;;;30.60;;
60054;SDS011;45930;53.514;55.904;2022-07-29T03:56:43;34.58;;;30.77;;
60054;SDS011;45930;53.514;55.904;2022-07-29T03:57:47;35.80;;;31.40;;
60054;SDS011;45930;53.514;55.904;2022-07-29T03:58:50;37.35;;;31.85;;
60054;SDS011;45930;53.514;55.904;2022-07-29T03:59:52;34.00;;;30.50;;
60054;SDS011;45930;53.514;55.904;2022-07-29T04:00:54;33.42;;;30.02;;
60054;SDS011;45930;53.514;55.904;2022-07-29T04:01:55;33.05;;;29.80;;
60054;SDS011;45930;53.514;55.904;2022-07-29T04:02:58;35.03;;;30.83;;
60054;SDS011;45930;53.514;55.904;2022-07-29T04:03:59;34.63;;;30.92;;
60054;SDS011;45930;53.514;55.904;2022-07-29T04:05:01;32.08;;;28.67;;
60054;SDS011;45930;53.514;55.904;2022-07-29T04:06:05;34.10;;;30.40;;
60054;SDS011;45930;53.514;55.904;2022-07-29T04:07:06;34.42;;;30.80;;
60054;SDS011;45930;53.514;55.904;2022-07-29T04:08:07;32.83;;;29.48;;
60054;SDS011;45930;53.514;55.904;2022-07-29T04:09:08;33.05;;;28.55;;
60054;SDS011;45930;53.514;55.904;2022-07-29T04:10:09;34.13;;;29.50;;
60054;SDS011;45930;53.514;55.904;2022-07-29T04:11:10;31.92;;;28.65;;
60054;SDS011;45930;53.514;55.904;2022-07-29T04:12:11;33.60;;;30.00;;
60054;SDS011;45930;53.514;55.904;2022-07-29T04:13:12;33.25;;;29.90;;
60054;SDS011;45930;53.514;55.904;2022-07-29T04:14:13;33.72;;;29.63;;
60054;SDS011;45930;53.514;55.904;2022-07-29T04:15:13;31.90;;;28.15;;
60054;SDS011;45930;53.514;55.904;2022-07-29T04:16:14;31.73;;;28.23;;
60054;SDS011;45930;53.514;55.904;2022-07-29T04:17:15;34.50;;;30.90;;
60054;SDS011;45930;53.514;55.904;2022-07-29T04:18:16;34.47;;;30.80;;
60054;SDS011;45930;53.514;55.904;2022-07-29T04:19:17;34.58;;;30.75;;
60054;SDS011;45930;53.514;55.904;2022-07-29T04:20:18;40.03;;;31.05;;
60054;SDS011;45930;53.514;55.904;2022-07-29T04:21:18;32.28;;;28.95;;
60054;SDS011;45930;53.514;55.904;2022-07-29T04:22:19;35.45;;;30.92;;
60054;SDS011;45930;53.514;55.904;2022-07-29T04:23:22;36.85;;;29.45;;
60054;SDS011;45930;53.514;55.904;2022-07-29T04:24:22;35.08;;;30.00;;
60054;SDS011;45930;53.514;55.904;2022-07-29T04:25:23;35.03;;;31.52;;
60054;SDS011;45930;53.514;55.904;2022-07-29T04:26:24;34.90;;;31.27;;
60054;SDS011;45930;53.514;55.904;2022-07-29T04:27:25;38.80;;;32.20;;
60054;SDS011;45930;53.514;55.904;2022-07-29T04:28:26;34.75;;;31.10;;
60054;SDS011;45930;53.514;55.904;2022-07-29T04:29:26;33.53;;;30.08;;
60054;SDS011;45930;53.514;55.904;2022-07-29T04:30:28;36.28;;;32.60;;
60054;SDS011;45930;53.514;55.904;2022-07-29T04:31:32;33.38;;;29.90;;
60054;SDS011;45930;53.514;55.904;2022-07-29T04:32:33;34.42;;;30.67;;
60054;SDS011;45930;53.514;55.904;2022-07-29T04:33:34;32.15;;;28.88;;
60054;SDS011;45930;53.514;55.904;2022-07-29T04:34:35;33.65;;;30.13;;
60054;SDS011;45930;53.514;55.904;2022-07-29T04:35:36;34.40;;;30.77;;
60054;SDS011;45930;53.514;55.904;2022-07-29T04:36:38;35.25;;;31.52;;
60054;SDS011;45930;53.514;55.904;2022-07-29T04:37:38;33.05;;;29.60;;
60054;SDS011;45930;53.514;55.904;2022-07-29T04:38:39;36.00;;;30.45;;
60054;SDS011;45930;53.514;55.904;2022-07-29T04:39:40;33.42;;;29.75;;
60054;SDS011;45930;53.514;55.904;2022-07-29T04:40:41;36.00;;;30.92;;
60054;SDS011;45930;53.514;55.904;2022-07-29T04:41:41;33.92;;;30.08;;
60054;SDS011;45930;53.514;55.904;2022-07-29T04:42:42;34.78;;;30.13;;
60054;SDS011;45930;53.514;55.904;2022-07-29T04:43:43;34.63;;;30.88;;
60054;SDS011;45930;53.514;55.904;2022-07-29T04:44:44;31.45;;;27.73;;
60054;SDS011;45930;53.514;55.904;2022-07-29T04:45:44;37.95;;;32.58;;
60054;SDS011;45930;53.514;55.904;2022-07-29T04:46:45;38.08;;;33.30;;
60054;SDS011;45930;53.514;55.904;2022-07-29T04:47:46;37.38;;;31.88;;
60054;SDS011;45930;53.514;55.904;2022-07-29T04:48:47;37.90;;;33.15;;
60054;SDS011;45930;53.514;55.904;2022-07-29T04:49:48;37.20;;;33.10;;
60054;SDS011;45930;53.514;55.904;2022-07-29T04:50:49;42.13;;;32.17;;
60054;SDS011;45930;53.514;55.904;2022-07-29T04:51:49;44.67;;;33.90;;
60054;SDS011;45930;53.514;55.904;2022-07-29T04:52:50;42.10;;;34.17;;
60054;SDS011;45930;53.514;55.904;2022-07-29T04:53:51;46.10;;;34.40;;
60054;SDS011;45930;53.514;55.904;2022-07-29T04:54:52;48.20;;;36.20;;
60054;SDS011;45930;53.514;55.904;2022-07-29T04:55:53;43.30;;;34.65;;
60054;SDS011;45930;53.514;55.904;2022-07-29T04:56:53;41.80;;;33.95;;
60054;SDS011;45930;53.514;55.904;2022-07-29T04:57:54;47.35;;;36.47;;
60054;SDS011;45930;53.514;55.904;2022-07-29T04:58:55;51.05;;;36.50;;
60054;SDS011;45930;53.514;55.904;2022-07-29T04:59:56;48.83;;;37.17;;
60054;SDS011;45930;53.514;55.904;2022-07-29T05:00:56;44.00;;;35.00;;
60054;SDS011;45930;53.514;55.904;2022-07-29T05:01:57;44.15;;;35.15;;
60054;SDS011;45930;53.514;55.904;2022-07-29T05:02:58;51.85;;;37.17;;
60054;SDS011;45930;53.514;55.904;2022-07-29T05:03:59;49.78;;;37.17;;
60054;SDS011;45930;53.514;55.904;2022-07-29T05:04:59;55.10;;;37.83;;
60054;SDS011;45930;53.514;55.904;2022-07-29T05:06:00;54.03;;;37.25;;
60054;SDS011;45930;53.514;55.904;2022-07-29T05:07:01;53.85;;;39.00;;
60054;SDS011;45930;53.514;55.904;2022-07-29T05:08:02;57.47;;;42.10;;
60054;SDS011;45930;53.514;55.904;2022-07-29T05:09:03;53.17;;;41.67;;
60054;SDS011;45930;53.514;55.904;2022-07-29T05:10:04;62.13;;;41.72;;
60054;SDS011;45930;53.514;55.904;2022-07-29T05:11:05;57.50;;;37.90;;
60054;SDS011;45930;53.514;55.904;2022-07-29T05:12:06;59.78;;;39.88;;
60054;SDS011;45930;53.514;55.904;2022-07-29T05:13:07;61.70;;;41.58;;
60054;SDS011;45930;53.514;55.904;2022-07-29T05:14:08;71.97;;;43.92;;
60054;SDS011;45930;53.514;55.904;2022-07-29T05:15:09;58.22;;;41.88;;
60054;SDS011;45930;53.514;55.904;2022-07-29T05:16:10;66.05;;;44.42;;
60054;SDS011;45930;53.514;55.904;2022-07-29T05:17:11;64.78;;;42.55;;
60054;SDS011;45930;53.514;55.904;2022-07-29T05:18:11;62.55;;;43.95;;
60054;SDS011;45930;53.514;55.904;2022-07-29T05:19:14;68.32;;;41.10;;
60054;SDS011;45930;53.514;55.904;2022-07-29T05:20:15;63.38;;;42.05;;
60054;SDS011;45930;53.514;55.904;2022-07-29T05:21:15;63.10;;;42.78;;
60054;SDS011;45930;53.514;55.904;2022-07-29T05:22:19;69.85;;;44.53;;
60054;SDS011;45930;53.514;55.904;2022-07-29T05:23:20;63.65;;;45.63;;
60054;SDS011;45930;53.514;55.904;2022-07-29T05:24:21;58.15;;;44.20;;
60054;SDS011;45930;53.514;55.904;2022-07-29T05:25:22;62.67;;;43.35;;
60054;SDS011;45930;53.514;55.904;2022-07-29T05:26:24;67.53;;;43.90;;
60054;SDS011;45930;53.514;55.904;2022-07-29T05:27:25;62.90;;;43.80;;
60054;SDS011;45930;53.514;55.904;2022-07-29T05:28:25;64.93;;;43.42;;
60054;SDS011;45930;53.514;55.904;2022-07-29T05:29:26;67.47;;;46.33;;
60054;SDS011;45930;53.514;55.904;2022-07-29T05:30:27;63.88;;;41.97;;
60054;SDS011;45930;53.514;55.904;2022-07-29T05:31:28;64.13;;;44.47;;
60054;SDS011;45930;53.514;55.904;2022-07-29T05:32:28;54.78;;;41.53;;
60054;SDS011;45930;53.514;55.904;2022-07-29T05:33:29;66.25;;;42.45;;
60054;SDS011;45930;53.514;55.904;2022-07-29T05:34:30;59.70;;;40.53;;
60054;SDS011;45930;53.514;55.904;2022-07-29T05:35:31;51.80;;;40.40;;
60054;SDS011;45930;53.514;55.904;2022-07-29T05:36:32;55.72;;;40.08;;
60054;SDS011;45930;53.514;55.904;2022-07-29T05:37:33;59.63;;;40.38;;
60054;SDS011;45930;53.514;55.904;2022-07-29T05:38:34;58.58;;;40.10;;
60054;SDS011;45930;53.514;55.904;2022-07-29T05:39:35;60.63;;;37.97;;
60054;SDS011;45930;53.514;55.904;2022-07-29T05:40:36;62.70;;;43.60;;
60054;SDS011;45930;53.514;55.904;2022-07-29T05:41:37;56.33;;;43.28;;
60054;SDS011;45930;53.514;55.904;2022-07-29T05:42:38;60.83;;;40.85;;
60054;SDS011;45930;53.514;55.904;2022-07-29T05:43:38;58.10;;;38.70;;
60054;SDS011;45930;53.514;55.904;2022-07-29T05:44:39;51.80;;;38.10;;
60054;SDS011;45930;53.514;55.904;2022-07-29T05:45:40;48.78;;;37.10;;
60054;SDS011;45930;53.514;55.904;2022-07-29T05:46:41;49.33;;;39.53;;
60054;SDS011;45930;53.514;55.904;2022-07-29T05:47:42;50.22;;;38.03;;
60054;SDS011;45930;53.514;55.904;2022-07-29T05:48:42;45.45;;;38.00;;
60054;SDS011;45930;53.514;55.904;2022-07-29T05:49:43;48.35;;;37.08;;
60054;SDS011;45930;53.514;55.904;2022-07-29T05:50:44;51.40;;;38.58;;
60054;SDS011;45930;53.514;55.904;2022-07-29T05:51:45;53.13;;;37.50;;
60054;SDS011;45930;53.514;55.904;2022-07-29T05:52:46;48.47;;;39.17;;
60054;SDS011;45930;53.514;55.904;2022-07-29T05:53:47;52.28;;;37.83;;
60054;SDS011;45930;53.514;55.904;2022-07-29T05:54:48;52.05;;;40.03;;
60054;SDS011;45930;53.514;55.904;2022-07-29T05:55:49;46.00;;;35.97;;
60054;SDS011;45930;53.514;55.904;2022-07-29T05:56:50;42.20;;;34.88;;
60054;SDS011;45930;53.514;55.904;2022-07-29T05:57:51;45.80;;;35.97;;
60054;SDS011;45930;53.514;55.904;2022-07-29T05:58:52;45.85;;;37.20;;
60054;SDS011;45930;53.514;55.904;2022-07-29T05:59:54;42.42;;;37.35;;
60054;SDS011;45930;53.514;55.904;2022-07-29T06:00:54;50.90;;;37.20;;
60054;SDS011;45930;53.514;55.904;2022-07-29T06:01:59;44.60;;;36.22;;
60054;SDS011;45930;53.514;55.904;2022-07-29T06:03:00;47.28;;;37.15;;
60054;SDS011;45930;53.514;55.904;2022-07-29T06:04:00;45.42;;;37.03;;
60054;SDS011;45930;53.514;55.904;2022-07-29T06:05:02;43.22;;;35.92;;
60054;SDS011;45930;53.514;55.904;2022-07-29T06:06:03;38.42;;;33.65;;
60054;SDS011;45930;53.514;55.904;2022-07-29T06:07:06;40.70;;;34.00;;
60054;SDS011;45930;53.514;55.904;2022-07-29T06:08:07;40.00;;;35.85;;
60054;SDS011;45930;53.514;55.904;2022-07-29T06:09:07;38.63;;;33.40;;
60054;SDS011;45930;53.514;55.904;2022-07-29T06:10:08;36.60;;;32.80;;
60054;SDS011;45930;53.514;55.904;2022-07-29T06:11:09;36.90;;;32.92;;
60054;SDS011;45930;53.514;55.904;2022-07-29T06:12:10;36.13;;;32.22;;
60054;SDS011;45930;53.514;55.904;2022-07-29T06:13:11;36.60;;;32.83;;
60054;SDS011;45930;53.514;55.904;2022-07-29T06:14:12;39.92;;;33.88;;
60054;SDS011;45930;53.514;55.904;2022-07-29T06:15:13;44.60;;;35.30;;
60054;SDS011;45930;53.514;55.904;2022-07-29T06:16:15;41.63;;;34.83;;